createdAt,value
2019-05-03T00:02:21.768Z,99.90
2019-05-03T00:04:53.439Z,99.90
2019-05-03T00:07:22.701Z,99.90
2019-05-03T00:09:52.358Z,99.90
2019-05-03T00:12:22.378Z,99.90
2019-05-03T00:14:55.581Z,99.90
2019-05-03T00:17:25.879Z,99.90
2019-05-03T00:19:55.482Z,99.90
2019-05-03T00:22:25.093Z,99.90
2019-05-03T00:25:05.337Z,99.90
2019-05-03T00:27:26.781Z,99.90
2019-05-03T00:29:57.086Z,99.90
2019-05-03T00:32:28.401Z,99.90
2019-05-03T00:35:01.866Z,99.90
2019-05-03T00:37:33.604Z,99.90
2019-05-03T00:40:08.539Z,99.90
2019-05-03T00:42:38.964Z,99.90
2019-05-03T00:45:09.700Z,99.90
2019-05-03T00:47:42.016Z,99.90
2019-05-03T00:50:12.098Z,99.90
2019-05-03T00:52:42.366Z,99.90
2019-05-03T00:55:16.947Z,99.90
2019-05-03T00:57:46.058Z,99.90
2019-05-03T01:00:16.079Z,99.90
2019-05-03T01:02:46.083Z,99.90
2019-05-03T01:05:16.383Z,99.90
2019-05-03T01:07:46.677Z,99.90
2019-05-03T01:10:16.840Z,99.90
2019-05-03T01:12:46.739Z,99.90
2019-05-03T01:15:24.226Z,99.90
2019-05-03T01:17:54.142Z,99.90
2019-05-03T01:20:24.474Z,99.90
2019-05-03T01:22:54.942Z,99.90
2019-05-03T01:25:32.136Z,99.90
2019-05-03T01:27:56.756Z,99.90
2019-05-03T01:30:27.061Z,99.90
2019-05-03T01:32:56.719Z,99.90
2019-05-03T01:35:26.730Z,99.90
2019-05-03T01:37:56.988Z,99.90
2019-05-03T01:40:26.963Z,99.90
2019-05-03T01:42:57.549Z,99.90
2019-05-03T01:45:27.810Z,99.90
2019-05-03T01:48:06.025Z,99.90
2019-05-03T01:50:48.247Z,99.90
2019-05-03T01:53:19.474Z,99.90
2019-05-03T01:55:53.005Z,99.90
2019-05-03T01:58:23.703Z,99.90
2019-05-03T02:01:03.243Z,99.90
2019-05-03T02:03:41.868Z,99.90
2019-05-03T02:06:11.947Z,99.90
2019-05-03T02:08:41.888Z,99.90
2019-05-03T02:11:11.674Z,99.90
2019-05-03T02:13:42.767Z,99.90
2019-05-03T02:16:12.776Z,99.90
2019-05-03T02:18:42.749Z,99.90
2019-05-03T02:21:13.079Z,99.90
2019-05-03T02:23:43.126Z,99.90
2019-05-03T02:26:12.814Z,99.90
2019-05-03T02:28:42.767Z,99.90
2019-05-03T02:31:13.699Z,99.90
2019-05-03T02:33:44.512Z,99.90
2019-05-03T02:36:14.932Z,99.90
2019-05-03T02:38:45.283Z,99.90
2019-05-03T02:41:14.523Z,99.90
2019-05-03T02:43:47.754Z,99.90
2019-05-03T02:46:29.995Z,99.90
2019-05-03T02:49:16.017Z,99.90
2019-05-03T02:51:46.455Z,99.90
2019-05-03T02:54:16.628Z,99.90
2019-05-03T02:56:46.723Z,99.90
2019-05-03T02:59:17.055Z,99.90
2019-05-03T03:01:47.789Z,99.90
2019-05-03T03:04:18.943Z,99.90
2019-05-03T03:06:49.751Z,99.90
2019-05-03T03:09:25.595Z,99.90
2019-05-03T03:11:56.347Z,99.90
2019-05-03T03:14:28.059Z,99.90
2019-05-03T03:17:00.899Z,99.90
2019-05-03T03:19:35.238Z,99.90
2019-05-03T03:22:08.034Z,99.90
2019-05-03T03:24:40.556Z,99.90
2019-05-03T03:27:16.463Z,99.90
2019-05-03T03:29:49.119Z,99.90
2019-05-03T03:32:29.356Z,99.90
2019-05-03T03:35:10.619Z,99.90
2019-05-03T03:37:35.755Z,99.90
2019-05-03T03:40:06.257Z,99.90
2019-05-03T03:42:38.252Z,99.90
2019-05-03T03:45:09.289Z,99.90
2019-05-03T03:47:40.595Z,99.90
2019-05-03T03:50:11.060Z,99.90
2019-05-03T03:52:45.170Z,99.90
2019-05-03T03:55:15.858Z,99.90
2019-05-03T03:57:46.790Z,99.90
2019-05-03T04:00:17.534Z,99.90
2019-05-03T04:02:47.129Z,99.90
2019-05-03T04:05:17.212Z,99.90
2019-05-03T04:07:47.172Z,99.90
2019-05-03T04:10:17.943Z,99.90
2019-05-03T04:12:48.317Z,99.90
2019-05-03T04:15:40.043Z,99.90
2019-05-03T04:18:32.975Z,99.90
2019-05-03T04:21:05.564Z,99.90
2019-05-03T04:23:36.023Z,99.90
2019-05-03T04:26:07.153Z,99.90
2019-05-03T04:28:40.791Z,99.90
2019-05-03T04:31:10.458Z,99.90
2019-05-03T04:33:40.539Z,99.90
2019-05-03T04:36:10.853Z,99.90
2019-05-03T04:38:41.201Z,99.90
2019-05-03T04:41:10.813Z,99.90
2019-05-03T04:43:40.817Z,99.90
2019-05-03T04:46:16.345Z,99.90
2019-05-03T04:48:46.422Z,99.90
2019-05-03T04:51:17.203Z,99.90
2019-05-03T04:53:51.726Z,99.90
2019-05-03T04:56:22.365Z,99.90
2019-05-03T04:58:52.982Z,99.90
2019-05-03T05:01:23.002Z,99.90
2019-05-03T05:03:53.021Z,99.90
2019-05-03T05:06:25.590Z,99.90
2019-05-03T05:08:55.214Z,99.90
2019-05-03T05:11:26.397Z,99.90
2019-05-03T05:13:56.708Z,99.90
2019-05-03T05:16:26.701Z,99.90
2019-05-03T05:19:01.444Z,99.90
2019-05-03T05:21:35.825Z,99.90
2019-05-03T05:24:06.580Z,99.90
2019-05-03T05:26:45.021Z,99.90
2019-05-03T05:29:16.317Z,99.90
2019-05-03T05:31:46.349Z,99.90
2019-05-03T05:34:15.666Z,99.90
2019-05-03T05:36:46.050Z,99.90
2019-05-03T05:39:18.795Z,99.90
2019-05-03T05:41:49.518Z,99.90
2019-05-03T05:44:19.391Z,99.90
2019-05-03T05:47:06.818Z,99.90
2019-05-03T05:49:47.599Z,99.90
2019-05-03T05:52:17.905Z,99.90
2019-05-03T05:54:52.362Z,99.90
2019-05-03T05:57:41.718Z,99.90
2019-05-03T06:00:18.963Z,99.90
2019-05-03T06:02:55.225Z,99.90
2019-05-03T06:05:25.426Z,99.90
2019-05-03T06:08:06.768Z,99.90
2019-05-03T06:10:48.663Z,99.90
2019-05-03T06:13:32.032Z,99.90
2019-05-03T06:16:15.372Z,99.90
2019-05-03T06:19:19.147Z,99.90
2019-05-03T06:22:11.305Z,99.90
2019-05-03T06:24:46.904Z,99.90
2019-05-03T06:27:24.441Z,99.90
2019-05-03T06:29:56.171Z,99.90
2019-05-03T06:32:30.331Z,99.90
2019-05-03T06:35:00.013Z,99.90
2019-05-03T06:37:35.403Z,99.90
2019-05-03T06:40:06.427Z,99.90
2019-05-03T06:42:37.050Z,99.90
2019-05-03T06:45:11.535Z,99.90
2019-05-03T06:47:40.387Z,99.90
2019-05-03T06:50:11.963Z,99.90
2019-05-03T06:52:44.456Z,99.90
2019-05-03T06:55:14.561Z,99.90
2019-05-03T06:57:49.580Z,99.90
2019-05-03T07:00:45.107Z,99.90
2019-05-03T07:03:35.320Z,99.90
2019-05-03T07:06:37.480Z,99.90
2019-05-03T07:09:15.991Z,99.90
2019-05-03T07:11:46.619Z,99.90
2019-05-03T07:14:16.227Z,99.90
2019-05-03T07:16:46.238Z,99.90
2019-05-03T07:19:16.900Z,99.90
2019-05-03T07:21:47.146Z,99.90
2019-05-03T07:24:40.635Z,99.90
2019-05-03T07:27:07.713Z,99.90
2019-05-03T07:29:38.082Z,99.90
2019-05-03T07:32:08.659Z,99.90
2019-05-03T07:34:38.687Z,99.90
2019-05-03T07:37:08.923Z,99.90
2019-05-03T07:39:39.286Z,99.90
2019-05-03T07:42:08.942Z,99.90
2019-05-03T07:44:39.385Z,99.90
2019-05-03T07:47:09.239Z,99.90
2019-05-03T07:49:38.518Z,99.90
2019-05-03T07:52:08.620Z,99.90
2019-05-03T07:54:38.683Z,99.90
2019-05-03T07:57:36.713Z,99.90
2019-05-03T08:00:07.663Z,99.90
2019-05-03T08:02:37.935Z,99.90
2019-05-03T08:05:08.503Z,99.90
2019-05-03T08:07:38.606Z,99.90
2019-05-03T08:10:09.628Z,99.90
2019-05-03T08:12:39.370Z,99.90
2019-05-03T08:15:09.822Z,99.90
2019-05-03T08:17:39.498Z,99.90
2019-05-03T08:20:09.447Z,99.90
2019-05-03T08:22:40.195Z,99.90
2019-05-03T08:25:09.834Z,99.90
2019-05-03T08:27:39.798Z,99.90
2019-05-03T08:30:11.183Z,99.90
2019-05-03T08:33:09.090Z,99.90
2019-05-03T08:35:41.479Z,99.90
2019-05-03T08:38:11.472Z,99.90
2019-05-03T08:40:45.509Z,99.90
2019-05-03T08:43:15.713Z,99.90
2019-05-03T08:45:46.239Z,99.90
2019-05-03T08:48:16.263Z,99.90
2019-05-03T08:50:46.556Z,99.90
2019-05-03T08:53:16.563Z,99.90
2019-05-03T08:55:47.215Z,99.90
2019-05-03T08:58:17.290Z,99.90
2019-05-03T09:00:47.607Z,99.90
2019-05-03T09:03:17.678Z,99.90
2019-05-03T09:05:49.787Z,99.90
2019-05-03T09:08:19.444Z,99.90
2019-05-03T09:11:02.234Z,99.90
2019-05-03T09:13:48.298Z,99.90
2019-05-03T09:16:18.875Z,99.90
2019-05-03T09:18:49.438Z,99.90
2019-05-03T09:21:19.760Z,99.90
2019-05-03T09:23:49.372Z,99.90
2019-05-03T09:26:19.397Z,99.90
2019-05-03T09:28:49.812Z,99.90
2019-05-03T09:31:19.888Z,99.90
2019-05-03T09:33:49.870Z,99.90
2019-05-03T09:36:19.796Z,99.90
2019-05-03T09:38:49.474Z,99.90
2019-05-03T09:41:20.163Z,99.90
2019-05-03T09:43:50.795Z,99.90
2019-05-03T09:46:23.481Z,99.90
2019-05-03T09:48:58.507Z,99.90
2019-05-03T09:51:25.570Z,99.90
2019-05-03T09:54:01.143Z,99.90
2019-05-03T09:56:55.876Z,99.90
2019-05-03T09:59:19.971Z,99.90
2019-05-03T10:01:49.660Z,99.90
2019-05-03T10:04:19.748Z,99.90
2019-05-03T10:06:49.680Z,99.90
2019-05-03T10:09:19.973Z,99.90
2019-05-03T10:11:50.401Z,99.90
2019-05-03T10:14:20.752Z,99.90
2019-05-03T10:17:15.938Z,99.90
2019-05-03T10:19:45.956Z,99.90
2019-05-03T10:22:17.816Z,99.90
2019-05-03T10:24:47.932Z,99.90
2019-05-03T10:27:17.943Z,99.90
2019-05-03T10:29:48.220Z,99.90
2019-05-03T10:32:27.587Z,99.90
2019-05-03T10:35:01.773Z,99.90
2019-05-03T10:37:33.061Z,99.90
2019-05-03T10:40:07.761Z,99.90
2019-05-03T10:42:36.317Z,99.90
2019-05-03T10:45:06.909Z,99.90
2019-05-03T10:47:36.930Z,99.90
2019-05-03T10:50:07.675Z,99.90
2019-05-03T10:52:44.699Z,99.90
2019-05-03T10:55:15.931Z,99.90
2019-05-03T10:57:48.865Z,99.90
2019-05-03T11:00:42.406Z,99.90
2019-05-03T11:02:59.262Z,99.90
2019-05-03T11:05:29.671Z,99.90
2019-05-03T11:07:59.787Z,99.90
2019-05-03T11:10:30.145Z,99.90
2019-05-03T11:13:00.238Z,99.90
2019-05-03T11:15:30.547Z,99.90
2019-05-03T11:17:59.878Z,99.90
2019-05-03T11:20:36.459Z,99.90
2019-05-03T11:23:08.269Z,99.90
2019-05-03T11:25:38.879Z,99.90
2019-05-03T11:28:24.957Z,99.90
2019-05-03T11:31:01.826Z,99.90
2019-05-03T11:33:32.855Z,99.90
2019-05-03T11:36:16.271Z,99.90
2019-05-03T11:38:47.811Z,99.90
2019-05-03T11:41:29.524Z,99.90
2019-05-03T11:43:49.599Z,99.90
2019-05-03T11:46:19.716Z,99.90
2019-05-03T11:48:50.395Z,99.90
2019-05-03T11:51:21.107Z,99.90
2019-05-03T11:53:51.461Z,99.70
2019-05-03T11:56:22.395Z,98.50
2019-05-03T11:58:54.865Z,99.10
2019-05-03T12:01:35.804Z,98.80
2019-05-03T12:04:06.823Z,98.00
2019-05-03T12:06:37.065Z,98.40
2019-05-03T12:09:08.338Z,97.80
2019-05-03T12:11:39.401Z,97.90
2019-05-03T12:14:15.238Z,96.90
2019-05-03T12:19:30.448Z,95.60
2019-05-03T12:21:56.069Z,98.30
2019-05-03T12:24:27.417Z,97.70
2019-05-03T12:26:58.242Z,97.40
2019-05-03T12:29:28.701Z,96.80
2019-05-03T12:31:58.847Z,96.40
2019-05-03T12:34:28.948Z,96.60
2019-05-03T12:36:59.279Z,96.30
2019-05-03T12:39:30.505Z,97.20
2019-05-03T12:42:01.018Z,96.10
2019-05-03T12:44:31.060Z,96.50
2019-05-03T12:47:02.650Z,95.50
2019-05-03T12:49:35.598Z,95.30
2019-05-03T12:52:05.490Z,95.70
2019-05-03T12:54:35.774Z,96.60
2019-05-03T12:57:06.448Z,96.40
2019-05-03T13:00:01.015Z,95.90
2019-05-03T13:02:50.016Z,95.20
2019-05-03T13:05:20.028Z,95.70
2019-05-03T13:08:08.279Z,94.90
2019-05-03T13:10:39.023Z,95.60
2019-05-03T13:13:09.067Z,95.00
2019-05-03T13:15:39.920Z,94.70
2019-05-03T13:18:10.258Z,95.00
2019-05-03T13:20:40.862Z,95.60
2019-05-03T13:23:12.949Z,95.10
2019-05-03T13:25:44.749Z,95.10
2019-05-03T13:28:15.308Z,95.70
2019-05-03T13:30:46.232Z,96.20
2019-05-03T13:33:16.446Z,96.10
2019-05-03T13:35:47.167Z,96.00
2019-05-03T13:38:16.796Z,96.60
2019-05-03T13:40:47.512Z,95.30
2019-05-03T13:43:18.235Z,95.30
2019-05-03T13:45:48.267Z,94.30
2019-05-03T13:48:21.007Z,93.70
2019-05-03T13:50:49.376Z,93.70
2019-05-03T13:53:19.559Z,94.10
2019-05-03T13:55:49.340Z,94.20
2019-05-03T13:58:19.648Z,93.40
2019-05-03T14:00:51.234Z,93.30
2019-05-03T14:03:22.400Z,93.20
2019-05-03T14:05:52.503Z,93.50
2019-05-03T14:08:22.695Z,93.40
2019-05-03T14:10:55.547Z,92.80
2019-05-03T14:13:24.719Z,92.90
2019-05-03T14:15:55.041Z,93.60
2019-05-03T14:18:25.657Z,93.70
2019-05-03T14:21:15.113Z,93.20
2019-05-03T14:24:05.117Z,93.10
2019-05-03T14:26:35.132Z,93.70
2019-05-03T14:29:05.698Z,93.60
2019-05-03T14:31:36.469Z,93.70
2019-05-03T14:34:06.200Z,93.20
2019-05-03T14:36:36.706Z,94.20
2019-05-03T14:39:09.902Z,95.10
2019-05-03T14:41:41.001Z,95.30
2019-05-03T14:44:14.542Z,94.50
2019-05-03T14:46:43.215Z,94.90
2019-05-03T14:49:14.850Z,95.40
2019-05-03T14:51:45.690Z,95.00
2019-05-03T14:54:15.797Z,95.30
2019-05-03T14:56:55.065Z,96.30
2019-05-03T14:59:45.195Z,95.90
2019-05-03T15:02:43.529Z,95.30
2019-05-03T15:05:08.868Z,95.10
2019-05-03T15:07:39.535Z,96.10
2019-05-03T15:10:10.104Z,96.60
2019-05-03T15:12:40.615Z,97.40
2019-05-03T15:15:14.492Z,97.50
2019-05-03T15:17:45.748Z,97.90
2019-05-03T15:20:15.720Z,98.50
2019-05-03T15:22:46.066Z,98.80
2019-05-03T15:25:16.345Z,99.80
2019-05-03T15:27:48.573Z,99.90
2019-05-03T15:30:19.203Z,99.90
2019-05-03T15:32:58.849Z,99.90
2019-05-03T15:35:21.588Z,99.90
2019-05-03T15:37:51.607Z,99.90
2019-05-03T15:40:21.682Z,99.90
2019-05-03T15:42:57.677Z,99.90
2019-05-03T15:45:51.527Z,99.90
2019-05-03T15:48:35.140Z,99.90
2019-05-03T15:51:06.156Z,99.90
2019-05-03T15:53:36.595Z,99.90
2019-05-03T15:56:06.308Z,99.90
2019-05-03T15:58:36.631Z,99.90
2019-05-03T16:01:06.690Z,99.90
2019-05-03T16:03:36.723Z,99.90
2019-05-03T16:06:06.732Z,99.90
2019-05-03T16:08:36.865Z,99.90
2019-05-03T16:11:07.080Z,99.90
2019-05-03T16:13:38.399Z,99.90
2019-05-03T16:16:08.555Z,99.90
2019-05-03T16:18:38.920Z,99.90
2019-05-03T16:21:09.313Z,99.90
2019-05-03T16:23:39.082Z,99.90
2019-05-03T16:26:09.069Z,99.90
2019-05-03T16:28:49.206Z,99.90
2019-05-03T16:31:21.529Z,99.90
2019-05-03T16:33:51.654Z,99.90
2019-05-03T16:36:21.588Z,99.90
2019-05-03T16:38:52.104Z,99.90
2019-05-03T16:41:24.684Z,99.90
2019-05-03T16:43:54.380Z,99.90
2019-05-03T16:46:25.965Z,99.90
2019-05-03T16:48:55.851Z,99.90
2019-05-03T16:51:25.867Z,99.30
2019-05-03T16:53:55.685Z,98.60
2019-05-03T16:56:26.453Z,99.60
2019-05-03T16:58:56.965Z,99.90
2019-05-03T17:01:27.730Z,99.90
2019-05-03T17:04:15.598Z,99.90
2019-05-03T17:06:55.317Z,99.90
2019-05-03T17:09:43.009Z,99.90
2019-05-03T17:12:16.921Z,99.90
2019-05-03T17:14:47.442Z,99.90
2019-05-03T17:17:17.020Z,99.90
2019-05-03T17:19:47.155Z,99.90
2019-05-03T17:22:17.302Z,99.90
2019-05-03T17:24:47.380Z,99.90
2019-05-03T17:27:17.053Z,99.90
2019-05-03T17:29:47.788Z,99.90
2019-05-03T17:32:18.180Z,99.90
2019-05-03T17:34:51.154Z,99.90
2019-05-03T17:37:23.200Z,99.90
2019-05-03T17:40:11.483Z,99.90
2019-05-03T17:42:58.961Z,99.90
2019-05-03T17:45:35.095Z,99.90
2019-05-03T17:48:06.058Z,99.90
2019-05-03T17:50:36.951Z,99.90
2019-05-03T17:53:32.275Z,99.90
2019-05-03T17:56:34.976Z,99.90
2019-05-03T17:59:07.894Z,99.90
2019-05-03T18:02:04.776Z,99.90
2019-05-03T18:05:02.415Z,99.90
2019-05-03T18:07:54.580Z,99.90
2019-05-03T18:10:27.112Z,99.90
2019-05-03T18:12:57.587Z,99.90
2019-05-03T18:15:27.675Z,99.90
2019-05-03T18:17:57.981Z,99.90
2019-05-03T18:20:28.661Z,99.90
2019-05-03T18:22:58.348Z,99.90
2019-05-03T18:25:28.056Z,99.90
2019-05-03T18:27:58.114Z,99.90
2019-05-03T18:30:28.497Z,99.90
2019-05-03T18:32:57.779Z,99.90
2019-05-03T18:35:28.028Z,99.90
2019-05-03T18:37:59.406Z,99.90
2019-05-03T18:40:30.812Z,99.90
2019-05-03T18:43:08.880Z,99.90
2019-05-03T18:45:56.394Z,99.90
2019-05-03T18:48:27.151Z,99.90
2019-05-03T18:50:57.630Z,99.90
2019-05-03T18:53:28.373Z,99.90
2019-05-03T18:55:59.119Z,99.90
2019-05-03T18:58:29.502Z,99.90
2019-05-03T19:00:59.949Z,99.90
2019-05-03T19:03:30.335Z,99.90
2019-05-03T19:06:05.260Z,99.90
2019-05-03T19:08:54.316Z,99.90
2019-05-03T19:11:29.677Z,99.90
2019-05-03T19:14:04.709Z,99.90
2019-05-03T19:16:46.798Z,99.90
2019-05-03T19:19:18.183Z,99.90
2019-05-03T19:21:48.612Z,99.90
2019-05-03T19:24:19.043Z,99.90
2019-05-03T19:26:49.571Z,99.90
2019-05-03T19:29:19.279Z,99.90
2019-05-03T19:31:49.648Z,99.90
2019-05-03T19:34:19.953Z,99.90
2019-05-03T19:36:50.848Z,99.90
2019-05-03T19:39:20.866Z,99.90
2019-05-03T19:41:50.886Z,99.90
2019-05-03T19:44:21.332Z,99.90
2019-05-03T19:46:51.262Z,99.90
2019-05-03T19:49:22.048Z,99.90
2019-05-03T19:51:52.335Z,99.90
2019-05-03T19:54:23.523Z,99.90
2019-05-03T19:56:55.578Z,99.90
2019-05-03T19:59:42.816Z,99.90
2019-05-03T20:02:35.185Z,99.90
2019-05-03T20:05:15.120Z,99.90
2019-05-03T20:08:10.107Z,99.90
2019-05-03T20:10:40.551Z,99.90
2019-05-03T20:13:10.974Z,99.90
2019-05-03T20:15:41.755Z,99.90
2019-05-03T20:18:11.420Z,99.90
2019-05-03T20:20:41.639Z,99.90
2019-05-03T20:23:11.457Z,99.90
2019-05-03T20:25:42.409Z,99.90
2019-05-03T20:28:16.361Z,99.90
2019-05-03T20:30:47.059Z,99.90
2019-05-03T20:33:17.495Z,99.90
2019-05-03T20:35:47.199Z,99.90
2019-05-03T20:38:18.092Z,99.90
2019-05-03T20:40:48.598Z,99.90
2019-05-03T20:43:35.197Z,99.90
2019-05-03T20:46:25.684Z,99.90
2019-05-03T20:48:57.895Z,99.90
2019-05-03T20:51:28.650Z,99.90
2019-05-03T20:53:58.952Z,99.90
2019-05-03T20:56:29.045Z,99.90
2019-05-03T20:58:58.796Z,99.90
2019-05-03T21:01:28.213Z,99.90
2019-05-03T21:03:58.213Z,99.90
2019-05-03T21:06:35.372Z,99.90
2019-05-03T21:08:59.128Z,99.90
2019-05-03T21:11:29.216Z,99.90
2019-05-03T21:13:59.997Z,99.90
2019-05-03T21:16:49.130Z,99.90
2019-05-03T21:19:30.388Z,99.90
2019-05-03T21:22:05.600Z,99.90
2019-05-03T21:24:41.492Z,99.90
2019-05-03T21:27:11.897Z,99.90
2019-05-03T21:29:54.810Z,99.90
2019-05-03T21:32:25.100Z,99.90
2019-05-03T21:34:55.834Z,99.90
2019-05-03T21:37:26.087Z,99.90
2019-05-03T21:39:56.400Z,99.90
2019-05-03T21:42:26.776Z,99.90
2019-05-03T21:44:57.468Z,99.90
2019-05-03T21:47:51.286Z,99.90
2019-05-03T21:50:21.719Z,99.90
2019-05-03T21:52:52.036Z,99.90
2019-05-03T21:55:22.391Z,99.90
2019-05-03T21:57:53.006Z,99.90
2019-05-03T22:00:24.681Z,99.90
2019-05-03T22:02:56.623Z,99.90
2019-05-03T22:05:26.582Z,99.90
2019-05-03T22:07:56.231Z,99.90
2019-05-03T22:10:26.556Z,99.90
2019-05-03T22:12:56.614Z,99.90
2019-05-03T22:15:48.972Z,99.90
2019-05-03T22:18:24.745Z,99.90
2019-05-03T22:21:05.412Z,99.90
2019-05-03T22:23:59.921Z,99.90
2019-05-03T22:29:27.390Z,99.90
2019-05-03T22:31:57.772Z,99.90
2019-05-03T22:34:27.059Z,99.90
2019-05-03T22:36:57.454Z,99.90
2019-05-03T22:39:27.768Z,99.90
2019-05-03T22:41:57.947Z,99.90
2019-05-03T22:44:28.531Z,99.90
2019-05-03T22:46:58.472Z,99.90
2019-05-03T22:49:28.399Z,99.90
2019-05-03T22:51:58.829Z,99.90
2019-05-03T22:54:28.752Z,99.90
2019-05-03T22:56:59.136Z,99.90
2019-05-03T22:59:28.988Z,99.90
2019-05-03T23:01:59.395Z,99.90
2019-05-03T23:04:30.077Z,99.90
2019-05-03T23:07:00.440Z,99.90
2019-05-03T23:09:31.087Z,99.90
2019-05-03T23:12:01.437Z,99.90
2019-05-03T23:14:31.100Z,99.90
2019-05-03T23:17:01.887Z,99.90
2019-05-03T23:19:33.612Z,99.90
2019-05-03T23:22:26.111Z,99.90
2019-05-03T23:24:56.161Z,99.90
2019-05-03T23:27:25.818Z,99.90
2019-05-03T23:29:55.762Z,99.90
2019-05-03T23:32:25.725Z,99.90
2019-05-03T23:34:55.420Z,99.90
2019-05-03T23:37:26.073Z,99.90
2019-05-03T23:39:56.400Z,99.90
2019-05-03T23:42:26.400Z,99.90
2019-05-03T23:44:55.580Z,99.90
2019-05-03T23:47:46.419Z,99.90
2019-05-03T23:50:18.931Z,99.90
2019-05-03T23:52:48.971Z,99.90
2019-05-03T23:55:56.819Z,99.90
2019-05-03T23:58:27.566Z,99.90
